sensor_id;sensor_type;location;lat;lon;timestamp;P1;P2;P0
46044;PMS7003;31781;54.094;13.428;2022-12-07T00:04:27;3.33;3.33;3.33
46044;PMS7003;31781;54.094;13.428;2022-12-07T00:09:30;6.00;6.00;2.00
46044;PMS7003;31781;54.094;13.428;2022-12-07T00:19:54;5.67;4.33;3.33
46044;PMS7003;31781;54.094;13.428;2022-12-07T00:25:15;2.00;2.00;1.67
46044;PMS7003;31781;54.094;13.428;2022-12-07T00:30:21;5.67;4.67;2.00
46044;PMS7003;31781;54.094;13.428;2022-12-07T00:35:26;2.00;2.00;2.00
46044;PMS7003;31781;54.094;13.428;2022-12-07T00:40:45;4.00;2.00;2.00
46044;PMS7003;31781;54.094;13.428;2022-12-07T00:45:57;8.00;5.00;4.00
46044;PMS7003;31781;54.094;13.428;2022-12-07T00:51:00;2.67;2.67;2.00
46044;PMS7003;31781;54.094;13.428;2022-12-07T00:56:12;2.00;2.00;1.67
46044;PMS7003;31781;54.094;13.428;2022-12-07T01:01:18;6.00;4.00;3.33
46044;PMS7003;31781;54.094;13.428;2022-12-07T01:06:23;7.33;4.33;4.00
46044;PMS7003;31781;54.094;13.428;2022-12-07T01:11:39;8.00;6.00;5.00
46044;PMS7003;31781;54.094;13.428;2022-12-07T01:22:03;6.00;6.00;5.00
46044;PMS7003;31781;54.094;13.428;2022-12-07T01:27:07;6.67;6.67;4.67
46044;PMS7003;31781;54.094;13.428;2022-12-07T01:32:10;2.67;2.67;2.00
46044;PMS7003;31781;54.094;13.428;2022-12-07T01:37:30;2.33;1.67;1.00
46044;PMS7003;31781;54.094;13.428;2022-12-07T01:42:36;5.00;5.00;4.33
46044;PMS7003;31781;54.094;13.428;2022-12-07T01:47:40;6.33;5.00;4.67
46044;PMS7003;31781;54.094;13.428;2022-12-07T01:52:50;8.00;5.33;4.00
46044;PMS7003;31781;54.094;13.428;2022-12-07T01:57:54;5.00;5.00;4.00
46044;PMS7003;31781;54.094;13.428;2022-12-07T02:03:00;4.67;4.00;4.00
46044;PMS7003;31781;54.094;13.428;2022-12-07T02:08:15;1.67;0.00;0.00
46044;PMS7003;31781;54.094;13.428;2022-12-07T02:13:20;2.00;2.00;2.00
46044;PMS7003;31781;54.094;13.428;2022-12-07T02:18:30;5.33;5.33;4.67
46044;PMS7003;31781;54.094;13.428;2022-12-07T02:24:13;5.33;4.00;2.00
46044;PMS7003;31781;54.094;13.428;2022-12-07T02:29:27;5.00;5.00;4.67
46044;PMS7003;31781;54.094;13.428;2022-12-07T02:34:54;4.00;4.00;2.00
46044;PMS7003;31781;54.094;13.428;2022-12-07T02:40:04;8.67;6.00;5.00
46044;PMS7003;31781;54.094;13.428;2022-12-07T02:50:35;1.00;1.00;1.00
46044;PMS7003;31781;54.094;13.428;2022-12-07T02:55:41;4.00;4.00;2.67
46044;PMS7003;31781;54.094;13.428;2022-12-07T03:00:54;4.00;1.33;1.00
46044;PMS7003;31781;54.094;13.428;2022-12-07T03:06:15;4.00;4.00;2.67
46044;PMS7003;31781;54.094;13.428;2022-12-07T03:11:28;4.00;4.00;4.00
46044;PMS7003;31781;54.094;13.428;2022-12-07T03:16:39;4.00;4.00;2.67
46044;PMS7003;31781;54.094;13.428;2022-12-07T03:21:57;4.33;4.33;4.00
46044;PMS7003;31781;54.094;13.428;2022-12-07T03:27:06;6.33;6.33;4.67
46044;PMS7003;31781;54.094;13.428;2022-12-07T03:42:50;5.00;5.00;3.33
46044;PMS7003;31781;54.094;13.428;2022-12-07T03:47:59;3.33;2.00;2.00
46044;PMS7003;31781;54.094;13.428;2022-12-07T03:53:11;4.67;4.67;2.67
46044;PMS7003;31781;54.094;13.428;2022-12-07T03:58:24;7.33;7.00;4.33
46044;PMS7003;31781;54.094;13.428;2022-12-07T04:03:28;4.00;4.00;2.00
46044;PMS7003;31781;54.094;13.428;2022-12-07T04:08:32;2.00;2.00;2.00
46044;PMS7003;31781;54.094;13.428;2022-12-07T04:13:40;7.00;7.00;4.00
46044;PMS7003;31781;54.094;13.428;2022-12-07T04:18:44;5.00;2.00;2.00
46044;PMS7003;31781;54.094;13.428;2022-12-07T04:23:47;2.00;2.00;2.00
46044;PMS7003;31781;54.094;13.428;2022-12-07T04:28:59;1.33;1.00;1.00
46044;PMS7003;31781;54.094;13.428;2022-12-07T04:34:08;2.67;2.67;2.00
46044;PMS7003;31781;54.094;13.428;2022-12-07T04:39:14;2.00;2.00;1.67
46044;PMS7003;31781;54.094;13.428;2022-12-07T04:49:44;8.00;5.00;4.00
46044;PMS7003;31781;54.094;13.428;2022-12-07T04:54:50;4.00;4.00;2.00
46044;PMS7003;31781;54.094;13.428;2022-12-07T04:59:53;5.00;2.00;1.00
46044;PMS7003;31781;54.094;13.428;2022-12-07T05:05:02;1.00;1.00;1.00
46044;PMS7003;31781;54.094;13.428;2022-12-07T05:10:06;2.00;2.00;1.00
46044;PMS7003;31781;54.094;13.428;2022-12-07T05:15:33;2.00;2.00;1.00
46044;PMS7003;31781;54.094;13.428;2022-12-07T05:20:38;1.00;1.00;1.00
46044;PMS7003;31781;54.094;13.428;2022-12-07T05:25:43;1.00;1.00;1.00
46044;PMS7003;31781;54.094;13.428;2022-12-07T05:30:54;2.00;2.00;1.33
46044;PMS7003;31781;54.094;13.428;2022-12-07T05:41:37;1.33;1.33;1.00
46044;PMS7003;31781;54.094;13.428;2022-12-07T05:46:39;5.67;4.00;2.00
46044;PMS7003;31781;54.094;13.428;2022-12-07T05:51:47;2.00;2.00;1.00
46044;PMS7003;31781;54.094;13.428;2022-12-07T06:02:10;4.00;4.00;2.00
46044;PMS7003;31781;54.094;13.428;2022-12-07T06:07:17;6.00;4.00;2.67
46044;PMS7003;31781;54.094;13.428;2022-12-07T06:12:20;5.33;5.33;2.00
46044;PMS7003;31781;54.094;13.428;2022-12-07T06:17:29;5.00;4.00;2.00
46044;PMS7003;31781;54.094;13.428;2022-12-07T06:22:32;6.33;5.67;4.00
46044;PMS7003;31781;54.094;13.428;2022-12-07T06:27:35;4.33;4.33;2.67
46044;PMS7003;31781;54.094;13.428;2022-12-07T06:32:44;8.00;7.00;4.00
46044;PMS7003;31781;54.094;13.428;2022-12-07T06:37:47;2.67;2.67;2.00
46044;PMS7003;31781;54.094;13.428;2022-12-07T06:42:50;5.00;5.00;4.33
46044;PMS7003;31781;54.094;13.428;2022-12-07T06:48:13;7.00;7.00;4.00
46044;PMS7003;31781;54.094;13.428;2022-12-07T06:53:34;12.00;4.00;3.33
46044;PMS7003;31781;54.094;13.428;2022-12-07T06:58:39;7.33;6.33;5.00
46044;PMS7003;31781;54.094;13.428;2022-12-07T07:03:42;7.00;7.00;4.00
46044;PMS7003;31781;54.094;13.428;2022-12-07T07:08:51;9.00;7.00;5.00
46044;PMS7003;31781;54.094;13.428;2022-12-07T07:13:54;5.67;4.00;2.67
46044;PMS7003;31781;54.094;13.428;2022-12-07T07:18:57;11.00;9.33;7.00
46044;PMS7003;31781;54.094;13.428;2022-12-07T07:24:06;7.67;6.33;4.00
46044;PMS7003;31781;54.094;13.428;2022-12-07T07:29:10;8.00;5.33;3.33
46044;PMS7003;31781;54.094;13.428;2022-12-07T07:34:13;6.33;5.00;4.00
46044;PMS7003;31781;54.094;13.428;2022-12-07T07:39:21;7.67;4.00;2.00
46044;PMS7003;31781;54.094;13.428;2022-12-07T07:44:42;7.67;5.00;4.00
46044;PMS7003;31781;54.094;13.428;2022-12-07T07:49:45;4.33;4.33;2.67
46044;PMS7003;31781;54.094;13.428;2022-12-07T07:54:49;9.33;9.33;7.00
46044;PMS7003;31781;54.094;13.428;2022-12-07T07:59:59;5.33;5.33;2.67
46044;PMS7003;31781;54.094;13.428;2022-12-07T08:05:19;1.67;1.67;0.00
46044;PMS7003;31781;54.094;13.428;2022-12-07T08:10:38;7.67;4.67;3.33
46044;PMS7003;31781;54.094;13.428;2022-12-07T08:15:42;6.33;4.33;2.67
46044;PMS7003;31781;54.094;13.428;2022-12-07T08:20:46;9.33;7.33;5.00
46044;PMS7003;31781;54.094;13.428;2022-12-07T08:25:57;7.67;7.67;5.67
46044;PMS7003;31781;54.094;13.428;2022-12-07T08:31:20;4.00;4.00;2.00
46044;PMS7003;31781;54.094;13.428;2022-12-07T08:36:24;4.33;4.33;4.00
46044;PMS7003;31781;54.094;13.428;2022-12-07T08:41:28;6.33;3.67;3.33
46044;PMS7003;31781;54.094;13.428;2022-12-07T08:57:08;7.00;4.00;2.00
46044;PMS7003;31781;54.094;13.428;2022-12-07T09:02:13;5.00;5.00;4.00
46044;PMS7003;31781;54.094;13.428;2022-12-07T09:07:18;8.33;8.33;5.00
46044;PMS7003;31781;54.094;13.428;2022-12-07T09:12:28;8.33;8.33;5.67
46044;PMS7003;31781;54.094;13.428;2022-12-07T09:17:31;8.00;6.33;5.00
46044;PMS7003;31781;54.094;13.428;2022-12-07T09:22:56;7.00;7.00;4.00
46044;PMS7003;31781;54.094;13.428;2022-12-07T09:28:00;12.67;6.33;4.33
46044;PMS7003;31781;54.094;13.428;2022-12-07T09:33:20;7.33;5.00;4.00
46044;PMS7003;31781;54.094;13.428;2022-12-07T09:38:31;8.00;8.00;6.33
46044;PMS7003;31781;54.094;13.428;2022-12-07T09:43:41;9.67;7.00;4.33
46044;PMS7003;31781;54.094;13.428;2022-12-07T09:48:49;8.00;5.67;4.67
46044;PMS7003;31781;54.094;13.428;2022-12-07T09:59:17;12.00;9.00;8.00
46044;PMS7003;31781;54.094;13.428;2022-12-07T10:04:39;5.00;5.00;4.00
46044;PMS7003;31781;54.094;13.428;2022-12-07T10:09:43;4.00;4.00;4.00
46044;PMS7003;31781;54.094;13.428;2022-12-07T10:14:56;9.33;8.00;5.00
46044;PMS7003;31781;54.094;13.428;2022-12-07T10:20:20;4.67;4.00;4.00
46044;PMS7003;31781;54.094;13.428;2022-12-07T10:25:26;5.00;5.00;4.33
46044;PMS7003;31781;54.094;13.428;2022-12-07T10:30:34;7.00;7.00;6.00
46044;PMS7003;31781;54.094;13.428;2022-12-07T10:36:14;5.33;5.33;3.67
46044;PMS7003;31781;54.094;13.428;2022-12-07T10:41:20;17.67;16.33;15.33
46044;PMS7003;31781;54.094;13.428;2022-12-07T10:52:24;7.50;7.50;6.00
46044;PMS7003;31781;54.094;13.428;2022-12-07T10:57:41;19.33;15.67;11.67
46044;PMS7003;31781;54.094;13.428;2022-12-07T11:08:18;8.33;8.33;6.00
46044;PMS7003;31781;54.094;13.428;2022-12-07T11:13:37;7.33;2.33;2.33
46044;PMS7003;31781;54.094;13.428;2022-12-07T11:18:49;5.00;5.00;3.33
46044;PMS7003;31781;54.094;13.428;2022-12-07T11:24:08;4.67;2.67;1.67
46044;PMS7003;31781;54.094;13.428;2022-12-07T11:34:49;1.33;1.33;1.00
46044;PMS7003;31781;54.094;13.428;2022-12-07T11:40:19;1.33;1.33;1.00
46044;PMS7003;31781;54.094;13.428;2022-12-07T11:45:28;2.00;1.00;0.67
46044;PMS7003;31781;54.094;13.428;2022-12-07T11:50:36;2.00;0.67;0.33
46044;PMS7003;31781;54.094;13.428;2022-12-07T11:56:02;2.00;2.00;1.00
46044;PMS7003;31781;54.094;13.428;2022-12-07T12:01:14;3.33;3.33;2.00
46044;PMS7003;31781;54.094;13.428;2022-12-07T12:11:54;0.00;0.00;0.00
46044;PMS7003;31781;54.094;13.428;2022-12-07T12:23:12;8.33;8.33;6.33
46044;PMS7003;31781;54.094;13.428;2022-12-07T12:28:32;2.00;2.00;1.00
46044;PMS7003;31781;54.094;13.428;2022-12-07T12:33:50;3.33;3.33;2.00
46044;PMS7003;31781;54.094;13.428;2022-12-07T12:50:18;3.33;1.67;1.00
46044;PMS7003;31781;54.094;13.428;2022-12-07T12:55:27;0.33;0.33;0.33
46044;PMS7003;31781;54.094;13.428;2022-12-07T13:06:53;0.33;0.33;0.00
46044;PMS7003;31781;54.094;13.428;2022-12-07T13:11:58;0.00;0.00;0.00
46044;PMS7003;31781;54.094;13.428;2022-12-07T13:17:04;0.00;0.00;0.00
46044;PMS7003;31781;54.094;13.428;2022-12-07T13:28:10;4.00;1.00;1.00
46044;PMS7003;31781;54.094;13.428;2022-12-07T13:33:19;1.33;1.33;0.33
46044;PMS7003;31781;54.094;13.428;2022-12-07T13:38:25;2.00;2.00;2.00
46044;PMS7003;31781;54.094;13.428;2022-12-07T13:48:53;1.00;1.00;1.00
46044;PMS7003;31781;54.094;13.428;2022-12-07T13:53:59;0.33;0.33;0.33
46044;PMS7003;31781;54.094;13.428;2022-12-07T13:59:05;2.00;2.00;2.00
46044;PMS7003;31781;54.094;13.428;2022-12-07T14:04:29;0.00;0.00;0.00
46044;PMS7003;31781;54.094;13.428;2022-12-07T14:09:39;0.00;0.00;0.00
46044;PMS7003;31781;54.094;13.428;2022-12-07T14:14:59;0.00;0.00;0.00
46044;PMS7003;31781;54.094;13.428;2022-12-07T14:25:44;5.33;1.00;1.00
46044;PMS7003;31781;54.094;13.428;2022-12-07T14:31:07;1.00;1.00;0.67
46044;PMS7003;31781;54.094;13.428;2022-12-07T14:36:24;0.00;0.00;0.00
46044;PMS7003;31781;54.094;13.428;2022-12-07T14:41:26;0.00;0.00;0.00
46044;PMS7003;31781;54.094;13.428;2022-12-07T14:46:51;0.33;0.33;0.00
46044;PMS7003;31781;54.094;13.428;2022-12-07T14:52:14;0.00;0.00;0.00
46044;PMS7003;31781;54.094;13.428;2022-12-07T14:57:36;0.00;0.00;0.00
46044;PMS7003;31781;54.094;13.428;2022-12-07T15:02:39;0.00;0.00;0.00
46044;PMS7003;31781;54.094;13.428;2022-12-07T15:08:04;1.00;1.00;1.00
46044;PMS7003;31781;54.094;13.428;2022-12-07T15:13:24;0.00;0.00;0.00
46044;PMS7003;31781;54.094;13.428;2022-12-07T15:18:44;0.00;0.00;0.00
46044;PMS7003;31781;54.094;13.428;2022-12-07T15:29:36;1.00;0.00;0.00
46044;PMS7003;31781;54.094;13.428;2022-12-07T15:34:41;2.00;0.00;0.00
46044;PMS7003;31781;54.094;13.428;2022-12-07T15:39:44;0.33;0.33;0.33
46044;PMS7003;31781;54.094;13.428;2022-12-07T15:44:53;0.00;0.00;0.00
46044;PMS7003;31781;54.094;13.428;2022-12-07T15:49:56;0.00;0.00;0.00
46044;PMS7003;31781;54.094;13.428;2022-12-07T15:54:59;0.00;0.00;0.00
46044;PMS7003;31781;54.094;13.428;2022-12-07T16:00:09;1.00;1.00;1.00
46044;PMS7003;31781;54.094;13.428;2022-12-07T16:05:37;0.00;0.00;0.00
46044;PMS7003;31781;54.094;13.428;2022-12-07T16:10:41;0.00;0.00;0.00
46044;PMS7003;31781;54.094;13.428;2022-12-07T16:15:44;0.00;0.00;0.00
46044;PMS7003;31781;54.094;13.428;2022-12-07T16:21:04;0.00;0.00;0.00
46044;PMS7003;31781;54.094;13.428;2022-12-07T16:26:08;0.00;0.00;0.00
46044;PMS7003;31781;54.094;13.428;2022-12-07T16:31:14;0.00;0.00;0.00
46044;PMS7003;31781;54.094;13.428;2022-12-07T16:36:24;0.00;0.00;0.00
46044;PMS7003;31781;54.094;13.428;2022-12-07T16:41:48;0.00;0.00;0.00
46044;PMS7003;31781;54.094;13.428;2022-12-07T16:52:11;1.00;1.00;0.00
46044;PMS7003;31781;54.094;13.428;2022-12-07T17:02:48;1.00;1.00;0.67
46044;PMS7003;31781;54.094;13.428;2022-12-07T17:08:07;0.00;0.00;0.00
46044;PMS7003;31781;54.094;13.428;2022-12-07T17:13:11;0.00;0.00;0.00
46044;PMS7003;31781;54.094;13.428;2022-12-07T17:18:14;1.33;1.33;1.00
46044;PMS7003;31781;54.094;13.428;2022-12-07T17:28:49;0.67;0.67;0.67
46044;PMS7003;31781;54.094;13.428;2022-12-07T17:33:54;2.00;0.67;0.33
46044;PMS7003;31781;54.094;13.428;2022-12-07T17:39:16;2.67;2.67;2.00
46044;PMS7003;31781;54.094;13.428;2022-12-07T17:44:21;1.33;1.00;1.00
46044;PMS7003;31781;54.094;13.428;2022-12-07T17:54:52;1.67;0.00;0.00
46044;PMS7003;31781;54.094;13.428;2022-12-07T17:59:56;1.00;0.67;0.00
46044;PMS7003;31781;54.094;13.428;2022-12-07T18:05:06;3.33;2.00;1.00
46044;PMS7003;31781;54.094;13.428;2022-12-07T18:10:09;0.67;0.67;0.67
46044;PMS7003;31781;54.094;13.428;2022-12-07T18:15:12;1.00;1.00;0.33
46044;PMS7003;31781;54.094;13.428;2022-12-07T18:20:21;1.00;1.00;0.00
46044;PMS7003;31781;54.094;13.428;2022-12-07T18:25:25;0.00;0.00;0.00
46044;PMS7003;31781;54.094;13.428;2022-12-07T18:30:28;2.00;2.00;0.67
46044;PMS7003;31781;54.094;13.428;2022-12-07T18:35:57;1.00;1.00;1.00
46044;PMS7003;31781;54.094;13.428;2022-12-07T18:41:17;1.33;1.33;1.00
46044;PMS7003;31781;54.094;13.428;2022-12-07T18:46:36;0.00;0.00;0.00
46044;PMS7003;31781;54.094;13.428;2022-12-07T18:51:39;0.00;0.00;0.00
46044;PMS7003;31781;54.094;13.428;2022-12-07T18:56:43;0.67;0.67;0.67
46044;PMS7003;31781;54.094;13.428;2022-12-07T19:01:52;1.00;1.00;0.33
46044;PMS7003;31781;54.094;13.428;2022-12-07T19:06:56;1.33;1.33;1.00
46044;PMS7003;31781;54.094;13.428;2022-12-07T19:11:59;5.00;4.33;2.67
46044;PMS7003;31781;54.094;13.428;2022-12-07T19:17:08;0.00;0.00;0.00
46044;PMS7003;31781;54.094;13.428;2022-12-07T19:22:15;0.00;0.00;0.00
46044;PMS7003;31781;54.094;13.428;2022-12-07T19:27:43;1.00;1.00;1.00
46044;PMS7003;31781;54.094;13.428;2022-12-07T19:32:47;1.00;1.00;1.00
46044;PMS7003;31781;54.094;13.428;2022-12-07T19:37:53;2.00;2.00;1.00
46044;PMS7003;31781;54.094;13.428;2022-12-07T19:43:02;4.00;4.00;1.67
46044;PMS7003;31781;54.094;13.428;2022-12-07T19:48:05;1.00;1.00;1.00
46044;PMS7003;31781;54.094;13.428;2022-12-07T19:53:09;0.00;0.00;0.00
46044;PMS7003;31781;54.094;13.428;2022-12-07T19:58:17;1.33;1.33;1.00
46044;PMS7003;31781;54.094;13.428;2022-12-07T20:03:21;1.00;1.00;1.00
46044;PMS7003;31781;54.094;13.428;2022-12-07T20:08:24;0.00;0.00;0.00
46044;PMS7003;31781;54.094;13.428;2022-12-07T20:13:34;0.00;0.00;0.00
46044;PMS7003;31781;54.094;13.428;2022-12-07T20:18:37;0.00;0.00;0.00
46044;PMS7003;31781;54.094;13.428;2022-12-07T20:24:02;0.00;0.00;0.00
46044;PMS7003;31781;54.094;13.428;2022-12-07T20:29:09;1.00;1.00;0.33
46044;PMS7003;31781;54.094;13.428;2022-12-07T20:34:18;0.00;0.00;0.00
46044;PMS7003;31781;54.094;13.428;2022-12-07T20:39:28;1.00;0.00;0.00
46044;PMS7003;31781;54.094;13.428;2022-12-07T20:44:34;1.00;1.00;1.00
46044;PMS7003;31781;54.094;13.428;2022-12-07T20:49:44;3.33;3.33;1.67
46044;PMS7003;31781;54.094;13.428;2022-12-07T21:00:10;0.00;0.00;0.00
46044;PMS7003;31781;54.094;13.428;2022-12-07T21:05:14;0.00;0.00;0.00
46044;PMS7003;31781;54.094;13.428;2022-12-07T21:10:17;0.00;0.00;0.00
46044;PMS7003;31781;54.094;13.428;2022-12-07T21:15:26;0.00;0.00;0.00
46044;PMS7003;31781;54.094;13.428;2022-12-07T21:20:50;0.00;0.00;0.00
46044;PMS7003;31781;54.094;13.428;2022-12-07T21:26:15;0.00;0.00;0.00
46044;PMS7003;31781;54.094;13.428;2022-12-07T21:31:19;0.00;0.00;0.00
46044;PMS7003;31781;54.094;13.428;2022-12-07T21:36:24;0.00;0.00;0.00
46044;PMS7003;31781;54.094;13.428;2022-12-07T21:41:34;1.00;0.00;0.00
46044;PMS7003;31781;54.094;13.428;2022-12-07T21:46:39;0.00;0.00;0.00
46044;PMS7003;31781;54.094;13.428;2022-12-07T21:51:42;0.00;0.00;0.00
46044;PMS7003;31781;54.094;13.428;2022-12-07T21:56:51;0.00;0.00;0.00
46044;PMS7003;31781;54.094;13.428;2022-12-07T22:01:54;0.00;0.00;0.00
46044;PMS7003;31781;54.094;13.428;2022-12-07T22:07:13;0.00;0.00;0.00
46044;PMS7003;31781;54.094;13.428;2022-12-07T22:12:17;0.00;0.00;0.00
46044;PMS7003;31781;54.094;13.428;2022-12-07T22:17:20;0.00;0.00;0.00
46044;PMS7003;31781;54.094;13.428;2022-12-07T22:22:28;0.33;0.33;0.00
46044;PMS7003;31781;54.094;13.428;2022-12-07T22:27:34;0.00;0.00;0.00
46044;PMS7003;31781;54.094;13.428;2022-12-07T22:32:43;0.00;0.00;0.00
46044;PMS7003;31781;54.094;13.428;2022-12-07T22:37:54;0.00;0.00;0.00
46044;PMS7003;31781;54.094;13.428;2022-12-07T22:48:33;1.00;0.00;0.00
46044;PMS7003;31781;54.094;13.428;2022-12-07T22:53:36;0.00;0.00;0.00
46044;PMS7003;31781;54.094;13.428;2022-12-07T22:58:48;0.00;0.00;0.00
46044;PMS7003;31781;54.094;13.428;2022-12-07T23:04:11;0.00;0.00;0.00
46044;PMS7003;31781;54.094;13.428;2022-12-07T23:09:29;0.00;0.00;0.00
46044;PMS7003;31781;54.094;13.428;2022-12-07T23:14:33;0.00;0.00;0.00
46044;PMS7003;31781;54.094;13.428;2022-12-07T23:19:38;0.00;0.00;0.00
46044;PMS7003;31781;54.094;13.428;2022-12-07T23:24:46;0.00;0.00;0.00
46044;PMS7003;31781;54.094;13.428;2022-12-07T23:29:51;0.00;0.00;0.00
46044;PMS7003;31781;54.094;13.428;2022-12-07T23:34:54;0.00;0.00;0.00
46044;PMS7003;31781;54.094;13.428;2022-12-07T23:45:24;0.00;0.00;0.00
46044;PMS7003;31781;54.094;13.428;2022-12-07T23:50:27;3.75;2.25;2.25
46044;PMS7003;31781;54.094;13.428;2022-12-07T23:55:48;0.00;0.00;0.00
